sensor_id;sensor_type;location;lat;lon;timestamp;P1;durP1;ratioP1;P2;durP2;ratioP2
64487;SDS011;50864;45.050;39.014;2022-12-18T00:02:01;218.07;;;77.87;;
64487;SDS011;50864;45.050;39.014;2022-12-18T00:04:28;225.15;;;78.62;;
64487;SDS011;50864;45.050;39.014;2022-12-18T00:06:53;192.20;;;73.22;;
64487;SDS011;50864;45.050;39.014;2022-12-18T00:09:19;194.62;;;73.37;;
64487;SDS011;50864;45.050;39.014;2022-12-18T00:11:46;199.30;;;73.15;;
64487;SDS011;50864;45.050;39.014;2022-12-18T00:14:12;214.63;;;77.00;;
64487;SDS011;50864;45.050;39.014;2022-12-18T00:16:39;226.80;;;78.60;;
64487;SDS011;50864;45.050;39.014;2022-12-18T00:19:06;217.70;;;77.68;;
64487;SDS011;50864;45.050;39.014;2022-12-18T00:21:32;199.27;;;73.47;;
64487;SDS011;50864;45.050;39.014;2022-12-18T00:23:59;199.25;;;74.22;;
64487;SDS011;50864;45.050;39.014;2022-12-18T00:26:28;211.73;;;76.82;;
64487;SDS011;50864;45.050;39.014;2022-12-18T00:28:58;243.75;;;82.18;;
64487;SDS011;50864;45.050;39.014;2022-12-18T00:31:26;214.75;;;77.50;;
64487;SDS011;50864;45.050;39.014;2022-12-18T00:33:55;218.02;;;77.72;;
64487;SDS011;50864;45.050;39.014;2022-12-18T00:36:23;210.82;;;76.43;;
64487;SDS011;50864;45.050;39.014;2022-12-18T00:38:51;218.02;;;77.62;;
64487;SDS011;50864;45.050;39.014;2022-12-18T00:41:19;213.70;;;77.47;;
64487;SDS011;50864;45.050;39.014;2022-12-18T00:44:04;202.52;;;75.43;;
64487;SDS011;50864;45.050;39.014;2022-12-18T00:46:32;232.55;;;79.37;;
64487;SDS011;50864;45.050;39.014;2022-12-18T00:48:58;230.37;;;79.07;;
64487;SDS011;50864;45.050;39.014;2022-12-18T00:51:25;203.43;;;74.55;;
64487;SDS011;50864;45.050;39.014;2022-12-18T00:53:52;216.38;;;76.75;;
64487;SDS011;50864;45.050;39.014;2022-12-18T00:56:18;208.23;;;75.40;;
64487;SDS011;50864;45.050;39.014;2022-12-18T00:58:47;201.75;;;75.10;;
64487;SDS011;50864;45.050;39.014;2022-12-18T01:01:13;214.75;;;77.00;;
64487;SDS011;50864;45.050;39.014;2022-12-18T01:03:39;229.00;;;81.37;;
64487;SDS011;50864;45.050;39.014;2022-12-18T01:06:09;208.52;;;76.18;;
64487;SDS011;50864;45.050;39.014;2022-12-18T01:08:37;207.02;;;75.60;;
64487;SDS011;50864;45.050;39.014;2022-12-18T01:11:10;223.77;;;77.93;;
64487;SDS011;50864;45.050;39.014;2022-12-18T01:13:40;243.73;;;83.12;;
64487;SDS011;50864;45.050;39.014;2022-12-18T01:16:06;226.88;;;80.18;;
64487;SDS011;50864;45.050;39.014;2022-12-18T01:18:34;215.15;;;76.85;;
64487;SDS011;50864;45.050;39.014;2022-12-18T01:21:00;228.18;;;78.40;;
64487;SDS011;50864;45.050;39.014;2022-12-18T01:23:28;222.77;;;78.20;;
64487;SDS011;50864;45.050;39.014;2022-12-18T01:25:54;202.85;;;74.15;;
64487;SDS011;50864;45.050;39.014;2022-12-18T01:28:20;216.80;;;75.15;;
64487;SDS011;50864;45.050;39.014;2022-12-18T01:30:46;221.18;;;76.47;;
64487;SDS011;50864;45.050;39.014;2022-12-18T01:33:12;241.38;;;78.80;;
64487;SDS011;50864;45.050;39.014;2022-12-18T01:35:41;194.32;;;71.03;;
64487;SDS011;50864;45.050;39.014;2022-12-18T01:38:07;211.82;;;72.97;;
64487;SDS011;50864;45.050;39.014;2022-12-18T01:40:33;181.52;;;69.87;;
64487;SDS011;50864;45.050;39.014;2022-12-18T01:43:00;182.18;;;67.97;;
64487;SDS011;50864;45.050;39.014;2022-12-18T01:45:30;188.90;;;69.57;;
64487;SDS011;50864;45.050;39.014;2022-12-18T01:48:06;172.85;;;67.35;;
64487;SDS011;50864;45.050;39.014;2022-12-18T01:50:36;169.70;;;67.35;;
64487;SDS011;50864;45.050;39.014;2022-12-18T01:55:52;148.32;;;61.90;;
64487;SDS011;50864;45.050;39.014;2022-12-18T01:58:20;148.75;;;62.67;;
64487;SDS011;50864;45.050;39.014;2022-12-18T02:00:54;210.73;;;74.18;;
64487;SDS011;50864;45.050;39.014;2022-12-18T02:03:20;213.43;;;74.43;;
64487;SDS011;50864;45.050;39.014;2022-12-18T02:05:48;228.75;;;76.20;;
64487;SDS011;50864;45.050;39.014;2022-12-18T02:14:21;252.48;;;80.30;;
64487;SDS011;50864;45.050;39.014;2022-12-18T02:17:09;214.80;;;74.45;;
64487;SDS011;50864;45.050;39.014;2022-12-18T02:27:59;220.50;;;74.40;;
64487;SDS011;50864;45.050;39.014;2022-12-18T02:30:30;185.37;;;69.72;;
64487;SDS011;50864;45.050;39.014;2022-12-18T02:32:59;219.82;;;74.32;;
64487;SDS011;50864;45.050;39.014;2022-12-18T02:35:27;228.27;;;77.40;;
64487;SDS011;50864;45.050;39.014;2022-12-18T02:37:56;199.30;;;70.93;;
64487;SDS011;50864;45.050;39.014;2022-12-18T02:40:25;189.37;;;69.28;;
64487;SDS011;50864;45.050;39.014;2022-12-18T02:42:53;193.85;;;69.20;;
64487;SDS011;50864;45.050;39.014;2022-12-18T02:45:20;210.20;;;74.20;;
64487;SDS011;50864;45.050;39.014;2022-12-18T02:47:47;183.90;;;69.62;;
64487;SDS011;50864;45.050;39.014;2022-12-18T03:04:02;193.77;;;68.78;;
64487;SDS011;50864;45.050;39.014;2022-12-18T03:06:40;196.20;;;72.43;;
64487;SDS011;50864;45.050;39.014;2022-12-18T03:09:20;180.35;;;68.65;;
64487;SDS011;50864;45.050;39.014;2022-12-18T03:11:53;208.77;;;74.05;;
64487;SDS011;50864;45.050;39.014;2022-12-18T03:14:43;194.80;;;69.18;;
64487;SDS011;50864;45.050;39.014;2022-12-18T03:17:13;192.37;;;71.28;;
64487;SDS011;50864;45.050;39.014;2022-12-18T03:19:43;217.07;;;74.00;;
64487;SDS011;50864;45.050;39.014;2022-12-18T03:22:11;220.68;;;76.28;;
64487;SDS011;50864;45.050;39.014;2022-12-18T03:24:39;170.50;;;64.93;;
64487;SDS011;50864;45.050;39.014;2022-12-18T03:27:09;195.90;;;70.75;;
64487;SDS011;50864;45.050;39.014;2022-12-18T03:29:40;236.77;;;77.47;;
64487;SDS011;50864;45.050;39.014;2022-12-18T03:34:41;224.93;;;74.95;;
64487;SDS011;50864;45.050;39.014;2022-12-18T03:37:10;203.93;;;71.07;;
64487;SDS011;50864;45.050;39.014;2022-12-18T03:39:37;164.88;;;64.62;;
64487;SDS011;50864;45.050;39.014;2022-12-18T03:45:32;156.27;;;63.60;;
64487;SDS011;50864;45.050;39.014;2022-12-18T03:48:22;144.13;;;58.08;;
64487;SDS011;50864;45.050;39.014;2022-12-18T03:54:10;171.98;;;66.18;;
64487;SDS011;50864;45.050;39.014;2022-12-18T03:56:39;196.95;;;72.72;;
64487;SDS011;50864;45.050;39.014;2022-12-18T03:59:10;194.82;;;71.28;;
64487;SDS011;50864;45.050;39.014;2022-12-18T04:01:40;222.93;;;77.87;;
64487;SDS011;50864;45.050;39.014;2022-12-18T04:06:38;225.93;;;71.68;;
64487;SDS011;50864;45.050;39.014;2022-12-18T04:09:07;205.07;;;68.72;;
64487;SDS011;50864;45.050;39.014;2022-12-18T04:11:34;162.10;;;64.68;;
64487;SDS011;50864;45.050;39.014;2022-12-18T04:14:01;173.02;;;67.37;;
64487;SDS011;50864;45.050;39.014;2022-12-18T04:16:27;221.00;;;75.53;;
64487;SDS011;50864;45.050;39.014;2022-12-18T04:18:54;226.75;;;77.07;;
64487;SDS011;50864;45.050;39.014;2022-12-18T04:21:21;224.07;;;76.95;;
64487;SDS011;50864;45.050;39.014;2022-12-18T04:23:48;151.23;;;62.78;;
64487;SDS011;50864;45.050;39.014;2022-12-18T04:26:16;138.23;;;57.47;;
64487;SDS011;50864;45.050;39.014;2022-12-18T04:28:43;147.73;;;61.72;;
64487;SDS011;50864;45.050;39.014;2022-12-18T04:31:09;131.77;;;55.72;;
64487;SDS011;50864;45.050;39.014;2022-12-18T04:33:36;149.65;;;59.70;;
64487;SDS011;50864;45.050;39.014;2022-12-18T04:36:02;150.52;;;59.70;;
64487;SDS011;50864;45.050;39.014;2022-12-18T04:38:29;138.88;;;60.05;;
64487;SDS011;50864;45.050;39.014;2022-12-18T04:40:56;158.00;;;61.20;;
64487;SDS011;50864;45.050;39.014;2022-12-18T04:43:23;133.87;;;55.42;;
64487;SDS011;50864;45.050;39.014;2022-12-18T04:45:49;160.12;;;60.90;;
64487;SDS011;50864;45.050;39.014;2022-12-18T04:48:15;193.55;;;70.47;;
64487;SDS011;50864;45.050;39.014;2022-12-18T04:50:41;204.90;;;73.90;;
64487;SDS011;50864;45.050;39.014;2022-12-18T04:53:07;134.50;;;58.95;;
64487;SDS011;50864;45.050;39.014;2022-12-18T04:55:33;160.45;;;63.45;;
64487;SDS011;50864;45.050;39.014;2022-12-18T04:57:59;125.38;;;56.20;;
64487;SDS011;50864;45.050;39.014;2022-12-18T05:00:25;130.82;;;57.75;;
64487;SDS011;50864;45.050;39.014;2022-12-18T05:02:51;114.18;;;54.53;;
64487;SDS011;50864;45.050;39.014;2022-12-18T05:05:17;140.48;;;59.38;;
64487;SDS011;50864;45.050;39.014;2022-12-18T05:07:43;106.60;;;53.05;;
64487;SDS011;50864;45.050;39.014;2022-12-18T05:10:10;92.80;;;49.50;;
64487;SDS011;50864;45.050;39.014;2022-12-18T05:12:35;94.35;;;50.45;;
64487;SDS011;50864;45.050;39.014;2022-12-18T05:15:22;88.10;;;48.72;;
64487;SDS011;50864;45.050;39.014;2022-12-18T05:17:48;107.95;;;52.10;;
64487;SDS011;50864;45.050;39.014;2022-12-18T05:20:14;111.00;;;53.03;;
64487;SDS011;50864;45.050;39.014;2022-12-18T05:22:40;101.90;;;50.22;;
64487;SDS011;50864;45.050;39.014;2022-12-18T05:25:07;108.00;;;52.30;;
64487;SDS011;50864;45.050;39.014;2022-12-18T05:27:33;118.50;;;54.85;;
64487;SDS011;50864;45.050;39.014;2022-12-18T05:29:59;109.18;;;54.13;;
64487;SDS011;50864;45.050;39.014;2022-12-18T05:32:25;102.30;;;51.13;;
64487;SDS011;50864;45.050;39.014;2022-12-18T05:34:51;80.38;;;47.45;;
64487;SDS011;50864;45.050;39.014;2022-12-18T05:37:18;83.07;;;47.25;;
64487;SDS011;50864;45.050;39.014;2022-12-18T05:39:44;80.07;;;46.45;;
64487;SDS011;50864;45.050;39.014;2022-12-18T05:42:10;68.93;;;43.85;;
64487;SDS011;50864;45.050;39.014;2022-12-18T05:44:36;70.22;;;43.83;;
64487;SDS011;50864;45.050;39.014;2022-12-18T05:47:02;76.12;;;45.67;;
64487;SDS011;50864;45.050;39.014;2022-12-18T05:49:28;71.55;;;44.42;;
64487;SDS011;50864;45.050;39.014;2022-12-18T05:51:54;80.95;;;44.50;;
64487;SDS011;50864;45.050;39.014;2022-12-18T05:54:20;63.10;;;40.75;;
64487;SDS011;50864;45.050;39.014;2022-12-18T05:56:46;56.60;;;39.30;;
64487;SDS011;50864;45.050;39.014;2022-12-18T05:59:12;57.67;;;39.72;;
64487;SDS011;50864;45.050;39.014;2022-12-18T06:01:38;66.32;;;41.25;;
64487;SDS011;50864;45.050;39.014;2022-12-18T06:04:04;66.82;;;42.13;;
64487;SDS011;50864;45.050;39.014;2022-12-18T06:06:30;49.33;;;37.28;;
64487;SDS011;50864;45.050;39.014;2022-12-18T06:08:56;48.22;;;37.03;;
64487;SDS011;50864;45.050;39.014;2022-12-18T06:11:23;48.70;;;36.38;;
64487;SDS011;50864;45.050;39.014;2022-12-18T06:13:52;45.53;;;36.67;;
64487;SDS011;50864;45.050;39.014;2022-12-18T06:16:19;51.47;;;38.85;;
64487;SDS011;50864;45.050;39.014;2022-12-18T06:18:45;59.85;;;42.28;;
64487;SDS011;50864;45.050;39.014;2022-12-18T06:21:12;108.70;;;53.80;;
64487;SDS011;50864;45.050;39.014;2022-12-18T06:23:38;97.50;;;52.25;;
64487;SDS011;50864;45.050;39.014;2022-12-18T06:26:08;93.07;;;50.55;;
64487;SDS011;50864;45.050;39.014;2022-12-18T06:31:03;117.93;;;55.40;;
64487;SDS011;50864;45.050;39.014;2022-12-18T06:33:30;92.90;;;48.00;;
64487;SDS011;50864;45.050;39.014;2022-12-18T06:35:59;50.55;;;36.17;;
64487;SDS011;50864;45.050;39.014;2022-12-18T06:38:31;51.35;;;35.38;;
64487;SDS011;50864;45.050;39.014;2022-12-18T06:40:57;38.58;;;33.75;;
64487;SDS011;50864;45.050;39.014;2022-12-18T06:43:23;63.42;;;41.80;;
64487;SDS011;50864;45.050;39.014;2022-12-18T06:45:50;369.30;;;106.07;;
64487;SDS011;50864;45.050;39.014;2022-12-18T06:48:18;9.30;;;5.68;;
64487;SDS011;50864;45.050;39.014;2022-12-18T06:50:45;34.28;;;26.83;;
64487;SDS011;50864;45.050;39.014;2022-12-18T06:53:11;31.87;;;26.27;;
64487;SDS011;50864;45.050;39.014;2022-12-18T06:55:37;22.70;;;20.25;;
64487;SDS011;50864;45.050;39.014;2022-12-18T06:58:03;28.77;;;21.73;;
64487;SDS011;50864;45.050;39.014;2022-12-18T07:00:29;29.85;;;26.95;;
64487;SDS011;50864;45.050;39.014;2022-12-18T07:02:55;37.03;;;26.25;;
64487;SDS011;50864;45.050;39.014;2022-12-18T07:05:21;153.12;;;62.30;;
64487;SDS011;50864;45.050;39.014;2022-12-18T07:07:47;119.97;;;55.97;;
64487;SDS011;50864;45.050;39.014;2022-12-18T07:10:13;115.07;;;55.83;;
64487;SDS011;50864;45.050;39.014;2022-12-18T07:12:39;64.50;;;35.88;;
64487;SDS011;50864;45.050;39.014;2022-12-18T07:15:05;21.00;;;18.75;;
64487;SDS011;50864;45.050;39.014;2022-12-18T07:17:32;38.17;;;33.25;;
64487;SDS011;50864;45.050;39.014;2022-12-18T07:19:58;24.95;;;22.33;;
64487;SDS011;50864;45.050;39.014;2022-12-18T07:22:27;69.07;;;43.78;;
64487;SDS011;50864;45.050;39.014;2022-12-18T07:24:53;87.93;;;47.08;;
64487;SDS011;50864;45.050;39.014;2022-12-18T07:27:19;54.25;;;26.35;;
64487;SDS011;50864;45.050;39.014;2022-12-18T07:29:45;6.93;;;4.12;;
64487;SDS011;50864;45.050;39.014;2022-12-18T07:32:11;8.13;;;3.08;;
64487;SDS011;50864;45.050;39.014;2022-12-18T07:34:36;7.47;;;4.72;;
64487;SDS011;50864;45.050;39.014;2022-12-18T07:37:03;7.97;;;3.12;;
64487;SDS011;50864;45.050;39.014;2022-12-18T07:39:29;10.63;;;6.90;;
64487;SDS011;50864;45.050;39.014;2022-12-18T07:41:55;9.30;;;4.05;;
64487;SDS011;50864;45.050;39.014;2022-12-18T07:44:42;5.82;;;4.50;;
64487;SDS011;50864;45.050;39.014;2022-12-18T07:47:08;7.53;;;3.90;;
64487;SDS011;50864;45.050;39.014;2022-12-18T07:49:34;11.55;;;3.45;;
64487;SDS011;50864;45.050;39.014;2022-12-18T07:52:00;12.07;;;8.90;;
64487;SDS011;50864;45.050;39.014;2022-12-18T07:54:27;9.80;;;6.30;;
64487;SDS011;50864;45.050;39.014;2022-12-18T07:56:52;22.73;;;12.32;;
64487;SDS011;50864;45.050;39.014;2022-12-18T07:59:19;12.82;;;11.48;;
64487;SDS011;50864;45.050;39.014;2022-12-18T08:01:45;77.37;;;46.03;;
64487;SDS011;50864;45.050;39.014;2022-12-18T08:04:11;15.50;;;9.68;;
64487;SDS011;50864;45.050;39.014;2022-12-18T08:06:37;42.97;;;33.72;;
64487;SDS011;50864;45.050;39.014;2022-12-18T08:09:03;32.53;;;26.87;;
64487;SDS011;50864;45.050;39.014;2022-12-18T08:11:29;31.60;;;23.83;;
64487;SDS011;50864;45.050;39.014;2022-12-18T08:13:55;22.40;;;19.87;;
64487;SDS011;50864;45.050;39.014;2022-12-18T08:16:22;33.22;;;24.65;;
64487;SDS011;50864;45.050;39.014;2022-12-18T08:18:51;10.38;;;6.00;;
64487;SDS011;50864;45.050;39.014;2022-12-18T08:21:19;14.18;;;9.07;;
64487;SDS011;50864;45.050;39.014;2022-12-18T08:23:48;17.65;;;15.43;;
64487;SDS011;50864;45.050;39.014;2022-12-18T08:26:15;27.65;;;17.27;;
64487;SDS011;50864;45.050;39.014;2022-12-18T08:28:41;21.45;;;14.73;;
64487;SDS011;50864;45.050;39.014;2022-12-18T08:31:07;12.10;;;10.43;;
64487;SDS011;50864;45.050;39.014;2022-12-18T14:15:35;212.12;;;69.85;;
64487;SDS011;50864;45.050;39.014;2022-12-18T14:21:04;198.27;;;71.22;;
64487;SDS011;50864;45.050;39.014;2022-12-18T14:23:39;190.65;;;71.85;;
64487;SDS011;50864;45.050;39.014;2022-12-18T14:26:26;228.43;;;76.12;;
64487;SDS011;50864;45.050;39.014;2022-12-18T14:28:58;111.93;;;53.50;;
64487;SDS011;50864;45.050;39.014;2022-12-18T14:31:29;191.00;;;69.15;;
64487;SDS011;50864;45.050;39.014;2022-12-18T14:33:56;256.98;;;81.07;;
64487;SDS011;50864;45.050;39.014;2022-12-18T14:36:24;175.82;;;65.75;;
64487;SDS011;50864;45.050;39.014;2022-12-18T14:38:58;159.20;;;63.22;;
64487;SDS011;50864;45.050;39.014;2022-12-18T14:41:24;276.98;;;84.55;;
64487;SDS011;50864;45.050;39.014;2022-12-18T14:43:52;116.40;;;52.97;;
64487;SDS011;50864;45.050;39.014;2022-12-18T14:46:27;67.75;;;42.70;;
64487;SDS011;50864;45.050;39.014;2022-12-18T14:48:56;76.40;;;44.42;;
64487;SDS011;50864;45.050;39.014;2022-12-18T14:51:23;57.17;;;39.83;;
64487;SDS011;50864;45.050;39.014;2022-12-18T14:54:01;31.67;;;22.20;;
64487;SDS011;50864;45.050;39.014;2022-12-18T14:56:44;21.05;;;14.50;;
64487;SDS011;50864;45.050;39.014;2022-12-18T14:59:14;15.85;;;10.95;;
64487;SDS011;50864;45.050;39.014;2022-12-18T15:04:40;26.27;;;18.10;;
64487;SDS011;50864;45.050;39.014;2022-12-18T15:09:36;17.37;;;11.50;;
64487;SDS011;50864;45.050;39.014;2022-12-18T15:12:03;13.95;;;11.12;;
64487;SDS011;50864;45.050;39.014;2022-12-18T15:17:13;14.02;;;10.32;;
64487;SDS011;50864;45.050;39.014;2022-12-18T15:19:48;16.65;;;12.32;;
64487;SDS011;50864;45.050;39.014;2022-12-18T15:24:51;20.88;;;16.52;;
64487;SDS011;50864;45.050;39.014;2022-12-18T15:27:23;14.90;;;11.43;;
64487;SDS011;50864;45.050;39.014;2022-12-18T15:32:34;16.80;;;12.95;;
64487;SDS011;50864;45.050;39.014;2022-12-18T15:37:44;15.23;;;12.07;;
64487;SDS011;50864;45.050;39.014;2022-12-18T15:40:16;17.25;;;13.77;;
64487;SDS011;50864;45.050;39.014;2022-12-18T15:42:48;16.58;;;12.88;;
64487;SDS011;50864;45.050;39.014;2022-12-18T15:45:35;22.40;;;14.87;;
64487;SDS011;50864;45.050;39.014;2022-12-18T15:48:01;19.80;;;16.35;;
64487;SDS011;50864;45.050;39.014;2022-12-18T15:50:30;17.52;;;15.10;;
64487;SDS011;50864;45.050;39.014;2022-12-18T15:52:56;21.80;;;17.65;;
64487;SDS011;50864;45.050;39.014;2022-12-18T15:55:22;25.20;;;17.67;;
64487;SDS011;50864;45.050;39.014;2022-12-18T15:58:08;22.27;;;17.92;;
64487;SDS011;50864;45.050;39.014;2022-12-18T16:00:37;17.33;;;15.57;;
64487;SDS011;50864;45.050;39.014;2022-12-18T16:03:05;17.33;;;15.50;;
64487;SDS011;50864;45.050;39.014;2022-12-18T16:05:31;19.67;;;14.87;;
64487;SDS011;50864;45.050;39.014;2022-12-18T16:07:58;25.37;;;20.65;;
64487;SDS011;50864;45.050;39.014;2022-12-18T16:10:24;25.50;;;20.75;;
64487;SDS011;50864;45.050;39.014;2022-12-18T16:12:51;23.33;;;19.65;;
64487;SDS011;50864;45.050;39.014;2022-12-18T16:15:17;22.40;;;19.42;;
64487;SDS011;50864;45.050;39.014;2022-12-18T16:17:44;22.70;;;19.35;;
64487;SDS011;50864;45.050;39.014;2022-12-18T16:20:21;30.92;;;23.58;;
64487;SDS011;50864;45.050;39.014;2022-12-18T16:22:50;20.08;;;18.10;;
64487;SDS011;50864;45.050;39.014;2022-12-18T16:27:47;22.80;;;20.15;;
64487;SDS011;50864;45.050;39.014;2022-12-18T16:30:19;34.78;;;25.70;;
64487;SDS011;50864;45.050;39.014;2022-12-18T16:32:47;29.77;;;24.70;;
64487;SDS011;50864;45.050;39.014;2022-12-18T16:35:17;30.00;;;25.25;;
64487;SDS011;50864;45.050;39.014;2022-12-18T16:37:42;33.75;;;26.00;;
64487;SDS011;50864;45.050;39.014;2022-12-18T16:40:09;24.67;;;22.10;;
64487;SDS011;50864;45.050;39.014;2022-12-18T16:42:39;31.65;;;22.62;;
64487;SDS011;50864;45.050;39.014;2022-12-18T16:45:08;29.50;;;25.12;;
64487;SDS011;50864;45.050;39.014;2022-12-18T16:47:36;30.05;;;25.42;;
64487;SDS011;50864;45.050;39.014;2022-12-18T16:50:04;37.13;;;27.25;;
64487;SDS011;50864;45.050;39.014;2022-12-18T16:52:30;32.70;;;25.75;;
64487;SDS011;50864;45.050;39.014;2022-12-18T16:54:56;22.98;;;20.73;;
64487;SDS011;50864;45.050;39.014;2022-12-18T16:57:22;24.87;;;21.42;;
64487;SDS011;50864;45.050;39.014;2022-12-18T16:59:48;36.58;;;28.33;;
64487;SDS011;50864;45.050;39.014;2022-12-18T17:02:19;31.92;;;27.08;;
64487;SDS011;50864;45.050;39.014;2022-12-18T17:04:52;32.63;;;25.50;;
64487;SDS011;50864;45.050;39.014;2022-12-18T17:07:19;39.78;;;30.05;;
64487;SDS011;50864;45.050;39.014;2022-12-18T17:09:46;37.78;;;28.67;;
64487;SDS011;50864;45.050;39.014;2022-12-18T17:12:12;31.00;;;23.25;;
64487;SDS011;50864;45.050;39.014;2022-12-18T17:14:38;28.62;;;25.58;;
64487;SDS011;50864;45.050;39.014;2022-12-18T17:17:04;33.08;;;28.12;;
64487;SDS011;50864;45.050;39.014;2022-12-18T17:19:30;27.10;;;24.33;;
64487;SDS011;50864;45.050;39.014;2022-12-18T17:21:57;27.55;;;24.45;;
64487;SDS011;50864;45.050;39.014;2022-12-18T17:24:25;37.08;;;27.48;;
64487;SDS011;50864;45.050;39.014;2022-12-18T17:26:51;29.27;;;26.25;;
64487;SDS011;50864;45.050;39.014;2022-12-18T17:29:18;47.30;;;42.10;;
64487;SDS011;50864;45.050;39.014;2022-12-18T17:31:46;39.60;;;30.62;;
64487;SDS011;50864;45.050;39.014;2022-12-18T17:34:13;26.48;;;23.65;;
64487;SDS011;50864;45.050;39.014;2022-12-18T17:36:39;26.25;;;23.12;;
64487;SDS011;50864;45.050;39.014;2022-12-18T17:39:10;39.78;;;28.65;;
64487;SDS011;50864;45.050;39.014;2022-12-18T17:41:44;39.70;;;29.63;;
64487;SDS011;50864;45.050;39.014;2022-12-18T17:44:10;28.30;;;25.40;;
64487;SDS011;50864;45.050;39.014;2022-12-18T17:46:36;27.98;;;25.00;;
64487;SDS011;50864;45.050;39.014;2022-12-18T17:49:02;32.55;;;27.45;;
64487;SDS011;50864;45.050;39.014;2022-12-18T17:51:29;35.17;;;27.67;;
64487;SDS011;50864;45.050;39.014;2022-12-18T17:53:55;31.17;;;27.52;;
64487;SDS011;50864;45.050;39.014;2022-12-18T17:56:22;44.53;;;33.25;;
64487;SDS011;50864;45.050;39.014;2022-12-18T17:58:49;32.35;;;28.75;;
64487;SDS011;50864;45.050;39.014;2022-12-18T18:01:16;31.20;;;27.65;;
64487;SDS011;50864;45.050;39.014;2022-12-18T18:03:46;32.42;;;28.92;;
64487;SDS011;50864;45.050;39.014;2022-12-18T18:06:13;51.40;;;35.42;;
64487;SDS011;50864;45.050;39.014;2022-12-18T18:08:39;57.85;;;38.85;;
64487;SDS011;50864;45.050;39.014;2022-12-18T18:11:11;40.67;;;34.20;;
64487;SDS011;50864;45.050;39.014;2022-12-18T18:13:57;64.80;;;41.70;;
64487;SDS011;50864;45.050;39.014;2022-12-18T18:18:58;47.92;;;35.13;;
64487;SDS011;50864;45.050;39.014;2022-12-18T18:21:26;66.12;;;39.58;;
64487;SDS011;50864;45.050;39.014;2022-12-18T18:23:52;52.10;;;37.47;;
64487;SDS011;50864;45.050;39.014;2022-12-18T18:26:19;45.80;;;35.20;;
64487;SDS011;50864;45.050;39.014;2022-12-18T18:28:46;50.55;;;35.35;;
64487;SDS011;50864;45.050;39.014;2022-12-18T18:31:12;62.17;;;40.50;;
64487;SDS011;50864;45.050;39.014;2022-12-18T18:33:38;63.28;;;41.92;;
64487;SDS011;50864;45.050;39.014;2022-12-18T18:36:08;87.78;;;47.60;;
64487;SDS011;50864;45.050;39.014;2022-12-18T18:38:36;81.95;;;46.37;;
64487;SDS011;50864;45.050;39.014;2022-12-18T18:41:02;79.00;;;44.60;;
64487;SDS011;50864;45.050;39.014;2022-12-18T18:43:29;80.50;;;43.00;;
64487;SDS011;50864;45.050;39.014;2022-12-18T18:45:57;93.22;;;45.50;;
64487;SDS011;50864;45.050;39.014;2022-12-18T18:48:24;101.68;;;47.62;;
64487;SDS011;50864;45.050;39.014;2022-12-18T18:50:54;91.45;;;46.88;;
64487;SDS011;50864;45.050;39.014;2022-12-18T18:53:25;123.62;;;53.63;;
64487;SDS011;50864;45.050;39.014;2022-12-18T18:55:56;226.30;;;75.10;;
64487;SDS011;50864;45.050;39.014;2022-12-18T18:58:24;545.78;;;146.60;;
64487;SDS011;50864;45.050;39.014;2022-12-18T19:00:55;181.87;;;66.20;;
64487;SDS011;50864;45.050;39.014;2022-12-18T19:05:53;215.95;;;71.82;;
64487;SDS011;50864;45.050;39.014;2022-12-18T19:08:25;264.08;;;82.62;;
64487;SDS011;50864;45.050;39.014;2022-12-18T19:10:53;118.35;;;54.45;;
64487;SDS011;50864;45.050;39.014;2022-12-18T19:13:21;116.15;;;52.42;;
64487;SDS011;50864;45.050;39.014;2022-12-18T19:15:55;125.93;;;55.45;;
64487;SDS011;50864;45.050;39.014;2022-12-18T19:18:27;130.32;;;56.13;;
64487;SDS011;50864;45.050;39.014;2022-12-18T19:21:03;225.45;;;76.57;;
64487;SDS011;50864;45.050;39.014;2022-12-18T19:23:31;108.82;;;51.42;;
64487;SDS011;50864;45.050;39.014;2022-12-18T19:26:01;98.03;;;49.15;;
64487;SDS011;50864;45.050;39.014;2022-12-18T19:28:29;85.32;;;46.70;;
64487;SDS011;50864;45.050;39.014;2022-12-18T19:30:58;106.45;;;50.55;;
64487;SDS011;50864;45.050;39.014;2022-12-18T19:33:27;108.00;;;50.45;;
64487;SDS011;50864;45.050;39.014;2022-12-18T19:35:54;77.47;;;44.55;;
64487;SDS011;50864;45.050;39.014;2022-12-18T19:38:20;76.05;;;44.20;;
64487;SDS011;50864;45.050;39.014;2022-12-18T19:40:46;98.97;;;49.90;;
64487;SDS011;50864;45.050;39.014;2022-12-18T19:43:13;67.10;;;41.80;;
64487;SDS011;50864;45.050;39.014;2022-12-18T19:45:39;61.42;;;40.72;;
64487;SDS011;50864;45.050;39.014;2022-12-18T19:48:06;63.15;;;40.92;;
64487;SDS011;50864;45.050;39.014;2022-12-18T19:50:32;62.13;;;38.65;;
64487;SDS011;50864;45.050;39.014;2022-12-18T19:52:59;64.85;;;39.75;;
64487;SDS011;50864;45.050;39.014;2022-12-18T19:55:25;68.05;;;41.80;;
64487;SDS011;50864;45.050;39.014;2022-12-18T19:57:51;84.97;;;44.80;;
64487;SDS011;50864;45.050;39.014;2022-12-18T20:00:17;90.60;;;46.17;;
64487;SDS011;50864;45.050;39.014;2022-12-18T20:02:44;74.12;;;44.80;;
64487;SDS011;50864;45.050;39.014;2022-12-18T20:05:10;98.15;;;49.13;;
64487;SDS011;50864;45.050;39.014;2022-12-18T20:07:37;100.47;;;49.58;;
64487;SDS011;50864;45.050;39.014;2022-12-18T20:10:06;96.45;;;48.55;;
64487;SDS011;50864;45.050;39.014;2022-12-18T20:15:02;117.72;;;53.28;;
64487;SDS011;50864;45.050;39.014;2022-12-18T20:17:28;93.62;;;48.45;;
64487;SDS011;50864;45.050;39.014;2022-12-18T20:19:54;87.78;;;47.17;;
64487;SDS011;50864;45.050;39.014;2022-12-18T20:22:20;92.95;;;48.90;;
64487;SDS011;50864;45.050;39.014;2022-12-18T20:24:46;99.40;;;49.97;;
64487;SDS011;50864;45.050;39.014;2022-12-18T20:27:12;100.47;;;50.10;;
64487;SDS011;50864;45.050;39.014;2022-12-18T20:29:38;109.43;;;52.42;;
64487;SDS011;50864;45.050;39.014;2022-12-18T20:32:04;133.80;;;57.47;;
64487;SDS011;50864;45.050;39.014;2022-12-18T20:34:30;128.93;;;54.50;;
64487;SDS011;50864;45.050;39.014;2022-12-18T20:36:56;59.08;;;40.33;;
64487;SDS011;50864;45.050;39.014;2022-12-18T20:39:22;62.38;;;40.72;;
64487;SDS011;50864;45.050;39.014;2022-12-18T20:41:50;75.47;;;43.42;;
64487;SDS011;50864;45.050;39.014;2022-12-18T20:44:16;58.15;;;40.92;;
64487;SDS011;50864;45.050;39.014;2022-12-18T20:46:43;70.43;;;43.90;;
64487;SDS011;50864;45.050;39.014;2022-12-18T20:49:09;76.60;;;45.03;;
64487;SDS011;50864;45.050;39.014;2022-12-18T20:51:35;64.87;;;42.58;;
64487;SDS011;50864;45.050;39.014;2022-12-18T20:54:02;66.80;;;43.67;;
64487;SDS011;50864;45.050;39.014;2022-12-18T20:56:28;83.00;;;47.42;;
64487;SDS011;50864;45.050;39.014;2022-12-18T20:58:57;78.95;;;46.05;;
64487;SDS011;50864;45.050;39.014;2022-12-18T21:01:26;102.20;;;51.17;;
64487;SDS011;50864;45.050;39.014;2022-12-18T21:03:53;126.28;;;54.65;;
64487;SDS011;50864;45.050;39.014;2022-12-18T21:06:20;198.10;;;67.90;;